createdAt,value
2023-03-29T00:03:54.364Z,100678.80
2023-03-29T00:08:57.694Z,100679.40
2023-03-29T00:14:03.378Z,100673.40
2023-03-29T00:19:40.559Z,100681.60
2023-03-29T00:24:43.613Z,100686.40
2023-03-29T00:29:54.483Z,100675.80
2023-03-29T00:34:58.685Z,100682.80
2023-03-29T00:40:17.661Z,100688.80
2023-03-29T00:45:27.010Z,100680.20
2023-03-29T00:50:39.479Z,100683.00
2023-03-29T00:56:27.842Z,100678.20
2023-03-29T01:01:42.731Z,100683.20
2023-03-29T01:07:13.840Z,100680.40
2023-03-29T01:12:24.673Z,100679.40
2023-03-29T01:17:31.805Z,100681.80
2023-03-29T01:23:17.569Z,100681.60
2023-03-29T01:28:33.645Z,100675.80
2023-03-29T01:33:49.565Z,100671.20
2023-03-29T01:39:03.601Z,100679.00
2023-03-29T01:44:37.475Z,100669.80
2023-03-29T01:50:08.562Z,100668.00
2023-03-29T01:55:38.631Z,100674.00
2023-03-29T02:00:43.900Z,100671.80
2023-03-29T02:05:47.373Z,100668.40
2023-03-29T02:10:56.642Z,100677.20
2023-03-29T02:16:03.302Z,100677.40
2023-03-29T02:21:25.388Z,100678.60
2023-03-29T02:26:29.474Z,100675.00
2023-03-29T02:31:53.156Z,100675.20
2023-03-29T02:37:11.824Z,100673.80
2023-03-29T02:42:21.372Z,100678.00
2023-03-29T02:47:47.447Z,100684.20
2023-03-29T02:53:06.146Z,100680.00
2023-03-29T02:58:13.002Z,100678.40
2023-03-29T03:03:19.051Z,100675.40
2023-03-29T03:08:22.355Z,100680.00
2023-03-29T03:13:25.760Z,100679.40
2023-03-29T03:18:31.342Z,100676.60
2023-03-29T03:23:34.707Z,100671.20
2023-03-29T03:28:39.184Z,100677.60
2023-03-29T03:33:42.215Z,100675.80
2023-03-29T03:38:46.418Z,100679.60
2023-03-29T03:43:49.715Z,100685.60
2023-03-29T03:48:52.788Z,100692.00
2023-03-29T03:53:55.936Z,100688.00
2023-03-29T03:58:59.046Z,100686.20
2023-03-29T04:04:05.086Z,100686.20
2023-03-29T04:09:11.637Z,100680.80
2023-03-29T04:14:15.359Z,100684.60
2023-03-29T04:19:18.779Z,100682.40
2023-03-29T04:24:24.711Z,100684.20
2023-03-29T04:29:28.709Z,100686.00
2023-03-29T04:34:32.220Z,100689.60
2023-03-29T04:39:35.431Z,100687.40
2023-03-29T04:44:47.811Z,100690.80
2023-03-29T04:49:50.925Z,100688.60
2023-03-29T04:55:06.311Z,100691.20
2023-03-29T05:00:14.644Z,100690.20
2023-03-29T05:05:17.810Z,100696.80
2023-03-29T05:10:21.207Z,100696.00
2023-03-29T05:15:24.390Z,100702.00
2023-03-29T05:20:28.644Z,100702.40
2023-03-29T05:25:36.999Z,100692.80
2023-03-29T05:30:47.994Z,100692.20
2023-03-29T05:36:13.142Z,100704.00
2023-03-29T05:41:18.199Z,100707.00
2023-03-29T05:46:29.314Z,100697.60
2023-03-29T05:51:45.700Z,100697.80
2023-03-29T05:56:48.723Z,100700.40
2023-03-29T06:01:55.227Z,100698.40
2023-03-29T06:07:04.194Z,100699.20
2023-03-29T06:12:10.043Z,100708.60
2023-03-29T06:17:13.848Z,100707.40
2023-03-29T06:22:17.278Z,100716.80
2023-03-29T06:27:20.746Z,100713.40
2023-03-29T06:32:23.950Z,100711.40
2023-03-29T06:37:27.817Z,100718.40
2023-03-29T06:42:33.890Z,100717.20
2023-03-29T06:47:37.196Z,100727.20
2023-03-29T06:52:40.410Z,100723.80
2023-03-29T06:57:51.701Z,100731.00
2023-03-29T07:03:00.881Z,100735.80
2023-03-29T07:08:06.898Z,100736.00
2023-03-29T07:13:15.677Z,100733.40
2023-03-29T07:18:32.037Z,100732.20
2023-03-29T07:23:38.900Z,100737.80
2023-03-29T07:28:43.229Z,100736.60
2023-03-29T07:33:47.779Z,100734.20
2023-03-29T07:38:51.017Z,100736.20
2023-03-29T07:43:57.178Z,100737.00
2023-03-29T07:49:12.533Z,100732.60
2023-03-29T07:54:15.912Z,100733.20
2023-03-29T07:59:19.082Z,100736.20
2023-03-29T08:04:26.776Z,100736.00
2023-03-29T08:09:30.499Z,100731.40
2023-03-29T08:14:34.266Z,100739.00
2023-03-29T08:19:37.451Z,100739.60
2023-03-29T08:24:40.340Z,100734.20
2023-03-29T08:29:43.752Z,100737.80
2023-03-29T08:34:47.099Z,100738.40
2023-03-29T08:39:52.544Z,100734.20
2023-03-29T08:45:01.591Z,100728.40
2023-03-29T08:50:06.890Z,100726.80
2023-03-29T08:55:42.426Z,100721.00
2023-03-29T09:01:17.095Z,100727.00
2023-03-29T09:06:35.739Z,100718.60
2023-03-29T09:12:35.767Z,100718.00
2023-03-29T09:18:34.977Z,100720.80
2023-03-29T09:24:05.573Z,100713.20
2023-03-29T09:30:10.699Z,100705.20
2023-03-29T09:35:33.847Z,100714.00
2023-03-29T09:40:46.744Z,100710.60
2023-03-29T09:46:21.841Z,100703.80
2023-03-29T09:51:33.013Z,100705.00
2023-03-29T09:56:36.115Z,100696.40
2023-03-29T10:01:51.732Z,100699.20
2023-03-29T10:07:05.105Z,100692.00
2023-03-29T10:12:17.711Z,100691.60
2023-03-29T10:17:38.142Z,100683.20
2023-03-29T10:22:50.087Z,100684.20
2023-03-29T10:28:05.313Z,100676.40
2023-03-29T10:33:46.487Z,100673.00
2023-03-29T10:39:13.277Z,100669.20
2023-03-29T10:44:36.465Z,100662.20
2023-03-29T10:49:50.893Z,100652.40
2023-03-29T10:55:00.061Z,100654.40
2023-03-29T11:00:46.382Z,100648.00
2023-03-29T11:06:26.254Z,100628.40
2023-03-29T11:11:47.363Z,100628.20
2023-03-29T11:17:41.799Z,100604.20
2023-03-29T11:23:35.165Z,100615.60
2023-03-29T11:28:53.613Z,100618.40
2023-03-29T11:34:42.426Z,100611.60
2023-03-29T11:40:31.732Z,100607.40
2023-03-29T11:46:14.441Z,100594.40
2023-03-29T11:51:26.867Z,100591.00
2023-03-29T11:56:47.820Z,100588.00
2023-03-29T12:02:07.773Z,100566.60
2023-03-29T12:07:26.859Z,100567.80
2023-03-29T12:13:00.217Z,100569.40
2023-03-29T12:18:28.136Z,100561.60
2023-03-29T12:23:33.275Z,100549.80
2023-03-29T12:29:05.699Z,100557.60
2023-03-29T12:35:05.696Z,100556.80
2023-03-29T12:40:19.175Z,100556.80
2023-03-29T12:45:48.525Z,100546.00
2023-03-29T12:51:01.052Z,100541.40
2023-03-29T12:56:04.522Z,100547.40
2023-03-29T13:01:32.184Z,100537.60
2023-03-29T13:07:17.089Z,100534.00
2023-03-29T13:12:51.458Z,100522.20
2023-03-29T13:18:29.202Z,100523.60
2023-03-29T13:24:03.363Z,100527.20
2023-03-29T13:29:18.942Z,100520.60
2023-03-29T13:34:54.450Z,100524.80
2023-03-29T13:39:58.141Z,100515.60
2023-03-29T13:45:30.307Z,100509.80
2023-03-29T13:50:55.856Z,100505.20
2023-03-29T13:56:02.083Z,100502.60
2023-03-29T14:01:32.865Z,100499.60
2023-03-29T14:06:40.750Z,100483.40
2023-03-29T14:11:47.548Z,100482.20
2023-03-29T14:16:51.247Z,100489.40
2023-03-29T14:21:54.758Z,100491.60
2023-03-29T14:27:00.250Z,100479.20
2023-03-29T14:32:13.055Z,100489.00
2023-03-29T14:37:26.316Z,100483.80
2023-03-29T14:42:32.163Z,100480.00
2023-03-29T14:47:36.751Z,100475.80
2023-03-29T14:52:44.995Z,100472.40
2023-03-29T14:58:10.087Z,100472.80
2023-03-29T15:03:16.875Z,100467.60
2023-03-29T15:08:34.356Z,100473.40
2023-03-29T15:13:42.483Z,100448.00
2023-03-29T15:18:49.710Z,100446.60
2023-03-29T15:23:59.520Z,100439.20
2023-03-29T15:29:23.398Z,100440.60
2023-03-29T15:34:35.356Z,100433.20
2023-03-29T15:39:44.557Z,100429.20
2023-03-29T15:44:53.305Z,100420.60
2023-03-29T15:50:22.736Z,100416.40
2023-03-29T15:55:32.770Z,100415.80
2023-03-29T16:00:43.618Z,100412.00
2023-03-29T16:05:49.559Z,100415.00
2023-03-29T16:10:52.753Z,100415.80
2023-03-29T16:16:06.466Z,100413.40
2023-03-29T16:21:18.398Z,100400.60
2023-03-29T16:26:24.455Z,100395.20
2023-03-29T16:31:30.810Z,100392.20
2023-03-29T16:36:35.151Z,100389.80
2023-03-29T16:41:38.828Z,100379.40
2023-03-29T16:46:57.620Z,100369.80
2023-03-29T16:52:01.212Z,100367.40
2023-03-29T16:57:04.605Z,100366.40
2023-03-29T17:02:10.939Z,100364.40
2023-03-29T17:07:14.194Z,100368.40
2023-03-29T17:12:20.618Z,100365.80
2023-03-29T17:17:24.031Z,100358.20
2023-03-29T17:22:31.885Z,100362.60
2023-03-29T17:27:38.878Z,100361.80
2023-03-29T17:32:45.926Z,100358.80
2023-03-29T17:37:49.681Z,100359.40
2023-03-29T17:42:55.531Z,100356.40
2023-03-29T17:48:04.708Z,100354.80
2023-03-29T17:53:10.772Z,100354.40
2023-03-29T17:58:24.322Z,100354.40
2023-03-29T18:03:48.652Z,100359.20
2023-03-29T18:08:53.395Z,100350.00
2023-03-29T18:14:07.743Z,100358.40
2023-03-29T18:19:14.010Z,100359.60
2023-03-29T18:24:17.430Z,100358.00
2023-03-29T18:29:21.152Z,100358.40
2023-03-29T18:34:34.553Z,100358.00
2023-03-29T18:40:08.435Z,100348.60
2023-03-29T18:45:12.560Z,100344.80
2023-03-29T18:50:19.055Z,100349.00
2023-03-29T18:55:25.033Z,100356.80
2023-03-29T19:00:28.337Z,100354.80
2023-03-29T19:05:32.861Z,100355.20
2023-03-29T19:10:38.829Z,100350.60
2023-03-29T19:15:47.664Z,100339.00
2023-03-29T19:20:54.482Z,100336.60
2023-03-29T19:26:04.194Z,100328.00
2023-03-29T19:31:07.529Z,100322.00
2023-03-29T19:36:11.024Z,100320.40
2023-03-29T19:41:14.418Z,100317.20
2023-03-29T19:46:17.548Z,100318.40
2023-03-29T19:51:26.826Z,100311.80
2023-03-29T19:56:30.131Z,100310.20
2023-03-29T20:01:34.175Z,100305.80
2023-03-29T20:06:37.373Z,100304.80
2023-03-29T20:11:40.680Z,100291.60
2023-03-29T20:16:44.983Z,100287.00
2023-03-29T20:21:57.873Z,100286.40
2023-03-29T20:27:01.680Z,100285.60
2023-03-29T20:32:04.806Z,100273.80
2023-03-29T20:37:07.996Z,100277.60
2023-03-29T20:42:11.373Z,100269.00
2023-03-29T20:47:16.928Z,100265.60
2023-03-29T20:52:23.615Z,100265.80
2023-03-29T20:57:28.623Z,100263.60
2023-03-29T21:02:33.784Z,100256.00
2023-03-29T21:07:37.624Z,100243.40
2023-03-29T21:12:43.597Z,100231.60
2023-03-29T21:17:47.912Z,100231.80
2023-03-29T21:22:51.717Z,100214.00
2023-03-29T21:27:58.097Z,100207.80
2023-03-29T21:33:01.297Z,100211.80
2023-03-29T21:38:04.700Z,100197.60
2023-03-29T21:43:07.814Z,100191.00
2023-03-29T21:48:13.399Z,100189.20
2023-03-29T21:53:24.762Z,100190.80
2023-03-29T21:58:28.104Z,100192.60
2023-03-29T22:03:31.629Z,100193.20
2023-03-29T22:08:35.097Z,100197.20
2023-03-29T22:13:38.702Z,100191.60
2023-03-29T22:18:47.008Z,100180.20
2023-03-29T22:23:54.120Z,100172.60
2023-03-29T22:29:03.945Z,100174.80
2023-03-29T22:34:12.818Z,100175.40
2023-03-29T22:39:18.219Z,100172.00
2023-03-29T22:44:24.133Z,100163.80
2023-03-29T22:49:34.974Z,100153.80
2023-03-29T22:54:38.459Z,100148.80
2023-03-29T22:59:52.247Z,100148.00
2023-03-29T23:04:58.072Z,100143.60
2023-03-29T23:10:09.889Z,100144.00
2023-03-29T23:15:32.441Z,100133.80
2023-03-29T23:20:38.693Z,100139.60
2023-03-29T23:25:51.831Z,100126.20
2023-03-29T23:31:22.640Z,100128.20
2023-03-29T23:36:28.188Z,100122.20
2023-03-29T23:41:56.824Z,100119.40
2023-03-29T23:47:09.489Z,100118.40
2023-03-29T23:52:13.335Z,100107.80
2023-03-29T23:57:26.929Z,100105.20
